Time;durP1;ratioP1;P1;durP2;ratioP2;P2;SDS_P1;SDS_P2;PMS_P1;PMS_P2;Temp;Humidity;BMP_temperature;BMP_pressure;BME280_temperature;BME280_humidity;BME280_pressure;Samples;Min_cycle;Max_cycle;Signal;HPM_P1;HPM_P2
2021/05/01 00:01:40;;;;;;;20.00;16.70;;;;;;;3.77;73.42;100321.10;106033;1104;78807;-60
2021/05/01 00:03:45;;;;;;;23.50;18.70;;;;;;;3.75;73.46;100314.23;106045;1104;77350;-61
2021/05/01 00:05:50;;;;;;;21.20;17.30;;;;;;;3.76;73.52;100315.92;106013;1104;77337;-65
2021/05/01 00:07:55;;;;;;;22.30;17.90;;;;;;;3.78;73.45;100317.45;106021;1104;78518;-64
2021/05/01 00:10:01;;;;;;;24.30;19.20;;;;;;;3.81;73.52;100319.83;106007;1105;77959;-64
2021/05/01 00:12:08;;;;;;;21.70;17.80;;;;;;;3.85;73.59;100320.36;106054;1105;77174;-63
2021/05/01 00:14:16;;;;;;;22.30;18.00;;;;;;;3.83;73.55;100317.84;106046;1105;77482;-65
2021/05/01 00:16:21;;;;;;;21.90;18.10;;;;;;;3.76;73.93;100315.92;106015;1104;77992;-65
2021/05/01 00:18:27;;;;;;;20.90;17.60;;;;;;;3.75;73.87;100309.73;106058;1104;77271;-65
2021/05/01 00:20:32;;;;;;;22.80;18.10;;;;;;;3.74;73.57;100313.38;106035;1104;79536;-65
2021/05/01 00:22:37;;;;;;;22.70;18.40;;;;;;;3.70;73.46;100314.68;106015;1104;77940;-65
2021/05/01 00:24:43;;;;;;;21.60;16.80;;;;;;;3.70;73.77;100314.68;106049;1104;78179;-61
2021/05/01 00:26:50;;;;;;;20.60;16.20;;;;;;;3.75;73.58;100319.56;106044;1104;78087;-61
2021/05/01 00:28:56;;;;;;;21.00;15.50;;;;;;;3.83;73.61;100319.67;106025;1105;78080;-61
2021/05/01 00:31:00;;;;;;;21.30;17.60;;;;;;;3.92;74.07;100314.29;106036;1104;79679;-61
2021/05/01 00:33:06;;;;;;;22.90;18.20;;;;;;;4.02;74.10;100319.56;106009;1104;78075;-61
2021/05/01 00:35:12;;;;;;;23.90;17.80;;;;;;;4.12;74.01;100313.16;106030;1104;79166;-61
2021/05/01 00:37:17;;;;;;;23.00;18.90;;;;;;;4.22;74.26;100317.63;106033;1104;79162;-61
2021/05/01 00:39:23;;;;;;;22.70;18.30;;;;;;;4.26;74.14;100311.81;106035;1099;78264;-64
2021/05/01 00:41:29;;;;;;;20.50;17.00;;;;;;;4.35;74.29;100312.73;106025;1104;78119;-66
2021/05/01 00:43:38;;;;;;;22.00;18.80;;;;;;;4.44;74.25;100320.70;106029;1104;77644;-66
2021/05/01 00:45:46;;;;;;;21.70;18.40;;;;;;;4.53;74.30;100326.98;106079;1105;77749;-66
2021/05/01 00:47:51;;;;;;;26.30;20.20;;;;;;;4.60;74.33;100336.91;106059;1104;78605;-64
2021/05/01 00:49:56;;;;;;;23.20;19.00;;;;;;;4.67;74.45;100329.09;106051;1105;77748;-64
2021/05/01 00:52:01;;;;;;;22.20;18.20;;;;;;;4.78;74.37;100328.86;106033;1105;79134;-64
2021/05/01 00:54:07;;;;;;;21.70;18.30;;;;;;;4.84;74.63;100327.41;106044;1104;78503;-64
2021/05/01 00:56:12;;;;;;;22.70;17.90;;;;;;;4.88;74.89;100318.93;106035;1104;78674;-64
2021/05/01 00:58:21;;;;;;;21.10;17.40;;;;;;;5.01;74.67;100311.33;106049;1104;77908;-64
2021/05/01 01:00:44;;;;;;;21.60;17.30;;;;;;;5.11;74.54;100309.39;106059;1104;78435;-64
2021/05/01 01:02:49;;;;;;;18.70;16.50;;;;;;;5.18;74.42;100307.78;106036;1104;78080;-64
2021/05/01 01:04:55;;;;;;;23.20;18.80;;;;;;;5.27;74.39;100317.53;106018;1105;77345;-64
2021/05/01 01:07:00;;;;;;;22.90;18.40;;;;;;;5.40;74.36;100313.60;106048;1104;78024;-64
2021/05/01 01:09:06;;;;;;;22.10;19.40;;;;;;;5.49;74.30;100326.91;106060;1105;78793;-65
2021/05/01 01:11:11;;;;;;;22.30;19.30;;;;;;;5.55;74.50;100328.11;106053;1104;78380;-60
2021/05/01 01:13:20;;;;;;;21.90;18.70;;;;;;;5.57;74.67;100326.95;106055;1104;78090;-60
2021/05/01 01:15:28;;;;;;;25.90;19.60;;;;;;;5.63;74.52;100325.47;106048;1104;78096;-65
2021/05/01 01:17:33;;;;;;;23.50;19.20;;;;;;;5.68;74.57;100321.31;106021;1104;78033;-64
2021/05/01 01:19:39;;;;;;;23.80;19.70;;;;;;;5.73;74.38;100326.19;106068;1105;77410;-64
2021/05/01 01:21:46;;;;;;;25.60;19.70;;;;;;;5.80;74.57;100321.84;106052;1104;77885;-64
2021/05/01 01:23:52;;;;;;;22.40;18.70;;;;;;;5.84;74.53;100329.43;106035;1104;77029;-65
2021/05/01 01:25:58;;;;;;;24.20;17.90;;;;;;;5.87;74.55;100326.46;106033;1105;79358;-60
2021/05/01 01:28:04;;;;;;;24.40;18.60;;;;;;;5.90;74.32;100331.50;106046;1098;76954;-60
2021/05/01 01:30:17;;;;;;;24.90;19.50;;;;;;;5.93;74.55;100349.92;106024;1104;78165;-60
2021/05/01 01:32:22;;;;;;;25.10;19.70;;;;;;;6.01;74.22;100340.25;106029;1104;78174;-61
2021/05/01 01:34:27;;;;;;;28.90;20.90;;;;;;;6.06;74.34;100349.48;106023;1105;79174;-59
2021/05/01 01:36:32;;;;;;;25.60;21.30;;;;;;;6.09;74.33;100342.95;106031;1104;78926;-59
2021/05/01 01:38:37;;;;;;;27.90;21.40;;;;;;;6.11;74.41;100340.95;106031;1104;77883;-60
2021/05/01 01:40:42;;;;;;;26.50;21.50;;;;;;;6.11;74.60;100352.52;106042;1105;78203;-65
2021/05/01 01:42:48;;;;;;;26.30;20.60;;;;;;;6.13;74.31;100353.19;106038;1104;77631;-66
2021/05/01 01:44:53;;;;;;;27.20;21.50;;;;;;;6.13;74.46;100355.88;106027;1104;77176;-60
2021/05/01 01:46:58;;;;;;;25.50;21.30;;;;;;;6.12;74.52;100359.58;106061;1105;78656;-60
2021/05/01 01:49:03;;;;;;;26.80;21.00;;;;;;;6.18;74.66;100347.36;106052;1104;77313;-60
2021/05/01 01:51:08;;;;;;;26.30;21.80;;;;;;;6.20;74.37;100343.52;106037;1104;76926;-60
2021/05/01 01:53:14;;;;;;;24.50;20.50;;;;;;;6.25;74.62;100348.38;106046;1105;77089;-59
2021/05/01 01:55:22;;;;;;;24.40;20.90;;;;;;;6.25;74.68;100343.86;106042;1104;77055;-65
2021/05/01 01:57:27;;;;;;;23.60;20.00;;;;;;;6.26;74.56;100348.20;106043;1105;77369;-65
2021/05/01 01:59:32;;;;;;;26.00;21.50;;;;;;;6.32;74.59;100358.28;106029;1105;78551;-60
2021/05/01 02:01:40;;;;;;;23.90;20.60;;;;;;;6.34;74.65;100358.14;106025;1105;78397;-61
2021/05/01 02:03:46;;;;;;;25.50;20.80;;;;;;;6.37;74.41;100357.81;106043;1104;77528;-60
2021/05/01 02:05:51;;;;;;;23.20;20.50;;;;;;;6.44;74.43;100350.78;106039;1104;77925;-60
2021/05/01 02:07:57;;;;;;;26.00;21.10;;;;;;;6.48;74.41;100347.59;106033;1104;77766;-60
2021/05/01 02:10:03;;;;;;;25.00;20.40;;;;;;;6.55;74.34;100350.47;106025;1105;78758;-60
2021/05/01 02:12:09;;;;;;;24.10;20.80;;;;;;;6.53;74.37;100347.97;106051;1105;78783;-61
2021/05/01 02:14:14;;;;;;;26.90;21.10;;;;;;;6.56;74.39;100349.48;106035;1104;77334;-62
2021/05/01 02:16:19;;;;;;;27.80;21.30;;;;;;;6.61;74.29;100354.34;106014;1104;78984;-61
2021/05/01 02:18:24;;;;;;;23.70;19.50;;;;;;;6.58;74.13;100349.30;106037;1099;78824;-61
2021/05/01 02:20:33;;;;;;;27.50;20.30;;;;;;;6.65;74.22;100355.70;106015;1104;79070;-65
2021/05/01 02:22:41;;;;;;;22.80;19.40;;;;;;;6.63;74.19;100350.48;106072;1104;78668;-65
2021/05/01 02:24:46;;;;;;;24.90;21.20;;;;;;;6.65;74.15;100347.66;106026;1104;78330;-61
2021/05/01 02:26:51;;;;;;;22.20;18.90;;;;;;;6.68;74.36;100344.61;106009;1099;76914;-61
2021/05/01 02:28:59;;;;;;;23.10;19.70;;;;;;;6.70;74.34;100342.63;106007;1104;77795;-61
2021/05/01 02:31:04;;;;;;;25.20;20.40;;;;;;;6.71;74.24;100345.13;106086;1098;77638;-61
2021/05/01 02:33:09;;;;;;;24.50;19.90;;;;;;;6.75;74.10;100349.17;106062;1104;78037;-61
2021/05/01 02:35:17;;;;;;;24.80;19.50;;;;;;;6.79;74.36;100342.45;106036;1104;77553;-66
2021/05/01 02:37:23;;;;;;;25.20;19.00;;;;;;;6.78;74.40;100345.31;106040;1104;78335;-66
2021/05/01 02:39:28;;;;;;;24.30;19.30;;;;;;;6.82;74.32;100342.12;106010;1104;78361;-61
2021/05/01 02:41:34;;;;;;;23.50;19.00;;;;;;;6.82;74.32;100341.27;106035;1105;77944;-61
2021/05/01 02:43:39;;;;;;;24.90;19.40;;;;;;;6.85;74.31;100327.52;106055;1105;78614;-61
2021/05/01 02:45:44;;;;;;;23.90;19.60;;;;;;;6.91;74.09;100313.43;106045;1105;77978;-66
2021/05/01 02:47:50;;;;;;;23.70;19.40;;;;;;;6.99;74.22;100313.42;106037;1104;78177;-66
2021/05/01 02:49:55;;;;;;;22.30;19.50;;;;;;;6.97;74.03;100326.19;106047;1104;78732;-66
2021/05/01 02:52:01;;;;;;;24.10;20.00;;;;;;;6.96;73.85;100327.19;106033;1104;78446;-66
2021/05/01 02:54:07;;;;;;;25.40;19.60;;;;;;;6.97;74.21;100329.72;106065;1104;77811;-65
2021/05/01 02:56:13;;;;;;;26.70;19.80;;;;;;;6.96;74.17;100311.92;106027;1105;78917;-65
2021/05/01 02:58:20;;;;;;;25.20;19.40;;;;;;;6.97;74.05;100312.77;106024;1105;78323;-65
2021/05/01 03:00:28;;;;;;;26.00;19.80;;;;;;;6.98;74.04;100322.48;106035;1104;77387;-66
2021/05/01 03:02:33;;;;;;;23.50;19.60;;;;;;;7.01;74.13;100341.79;106052;1105;77949;-66
2021/05/01 03:04:38;;;;;;;25.70;20.60;;;;;;;7.02;74.19;100350.69;106034;1105;77647;-61
2021/05/01 03:06:46;;;;;;;23.60;20.00;;;;;;;7.03;74.22;100344.33;106048;1104;78115;-61
2021/05/01 03:08:51;;;;;;;25.20;21.00;;;;;;;7.02;74.23;100340.80;106024;1105;78461;-61
2021/05/01 03:10:56;;;;;;;25.50;20.20;;;;;;;7.01;74.07;100335.58;106039;1104;77978;-66
2021/05/01 03:13:02;;;;;;;26.00;20.90;;;;;;;7.02;74.16;100327.36;106005;1104;78028;-64
2021/05/01 03:15:10;;;;;;;25.00;20.80;;;;;;;7.03;73.94;100320.97;106041;1105;78751;-61
2021/05/01 03:17:18;;;;;;;23.90;21.20;;;;;;;7.01;74.20;100324.83;106058;1104;78648;-62
2021/05/01 03:19:23;;;;;;;26.60;21.90;;;;;;;7.00;74.35;100345.47;106044;1098;76879;-65
2021/05/01 03:21:31;;;;;;;29.40;22.60;;;;;;;6.99;74.05;100348.34;106046;1104;78205;-65
2021/05/01 03:23:36;;;;;;;26.20;22.10;;;;;;;7.01;74.08;100340.94;106044;1104;78800;-65
2021/05/01 03:25:41;;;;;;;27.20;21.80;;;;;;;7.05;73.79;100355.73;106026;1104;77169;-59
2021/05/01 03:27:47;;;;;;;27.30;21.50;;;;;;;7.07;74.21;100353.70;106008;1104;78206;-60
2021/05/01 03:29:55;;;;;;;26.50;22.00;;;;;;;7.07;73.94;100351.02;106015;1104;78755;-60
2021/05/01 03:32:04;;;;;;;25.30;22.00;;;;;;;7.08;74.09;100344.66;106035;1104;78016;-60
2021/05/01 03:34:09;;;;;;;28.50;21.50;;;;;;;7.11;74.25;100357.75;106046;1104;78316;-60
2021/05/01 03:36:14;;;;;;;27.60;22.70;;;;;;;7.13;74.16;100344.98;106035;1103;78637;-67
2021/05/01 03:38:19;;;;;;;27.40;22.20;;;;;;;7.10;74.13;100340.79;106031;1104;79286;-67
2021/05/01 03:40:24;;;;;;;28.40;22.60;;;;;;;7.10;74.25;100338.11;106022;1104;77948;-60
2021/05/01 03:42:29;;;;;;;27.50;21.80;;;;;;;7.11;73.97;100330.89;106050;1099;77225;-60
2021/05/01 03:44:34;;;;;;;27.60;22.60;;;;;;;7.12;74.18;100327.17;106048;1104;79234;-66
2021/05/01 03:46:39;;;;;;;24.20;21.70;;;;;;;7.11;73.94;100337.08;106035;1104;78344;-67
2021/05/01 03:48:47;;;;;;;26.80;21.70;;;;;;;7.11;74.14;100320.15;106042;1104;77531;-66
2021/05/01 03:50:52;;;;;;;26.70;22.20;;;;;;;7.14;74.01;100314.44;106050;1105;77658;-60
2021/05/01 03:53:00;;;;;;;26.40;21.00;;;;;;;7.12;73.85;100311.06;106064;1099;78093;-60
2021/05/01 03:55:08;;;;;;;25.70;20.70;;;;;;;7.13;74.07;100308.22;106036;1104;78610;-66
2021/05/01 03:57:16;;;;;;;25.40;21.00;;;;;;;7.16;74.17;100304.36;106004;1104;77407;-65
2021/05/01 03:59:21;;;;;;;25.60;20.70;;;;;;;7.13;74.15;100297.48;106026;1104;78443;-65
2021/05/01 04:01:26;;;;;;;26.60;22.10;;;;;;;7.14;74.61;100292.95;106031;1105;78718;-65
2021/05/01 04:03:31;;;;;;;26.80;22.10;;;;;;;7.14;74.51;100282.20;106045;1104;77412;-65
2021/05/01 04:05:37;;;;;;;29.10;22.20;;;;;;;7.22;74.59;100276.81;106027;1103;77350;-64
2021/05/01 04:07:42;;;;;;;27.00;21.80;;;;;;;7.22;75.14;100268.76;106053;1100;78325;-64
2021/05/01 04:09:47;;;;;;;29.60;22.40;;;;;;;7.26;74.83;100270.08;106038;1104;77442;-60
2021/05/01 04:11:52;;;;;;;25.30;21.70;;;;;;;7.31;74.89;100281.14;106033;1104;78803;-60
2021/05/01 04:13:57;;;;;;;26.00;21.60;;;;;;;7.40;74.72;100271.22;106040;1104;78674;-61
2021/05/01 04:16:02;;;;;;;27.50;22.20;;;;;;;7.35;75.26;100273.59;106053;1104;78430;-65
2021/05/01 04:18:12;;;;;;;25.10;22.00;;;;;;;7.44;75.08;100284.16;106029;1104;78148;-64
2021/05/01 04:20:17;;;;;;;26.60;21.70;;;;;;;7.52;74.76;100292.20;106034;1105;77640;-64
2021/05/01 04:22:23;;;;;;;26.70;21.60;;;;;;;7.62;74.67;100297.36;106033;1105;78150;-65
2021/05/01 04:24:29;;;;;;;26.00;21.90;;;;;;;7.71;74.47;100307.94;106029;1105;77228;-61
2021/05/01 04:26:34;;;;;;;24.70;21.20;;;;;;;7.70;74.76;100303.55;106034;1104;78529;-61
2021/05/01 04:28:39;;;;;;;25.20;20.90;;;;;;;7.78;74.54;100309.91;106061;1104;78252;-62
2021/05/01 04:30:44;;;;;;;26.50;21.30;;;;;;;7.83;74.74;100321.00;106002;1104;78784;-64
2021/05/01 04:32:50;;;;;;;24.40;21.70;;;;;;;7.89;74.38;100321.13;106032;1104;78317;-64
2021/05/01 04:34:55;;;;;;;24.00;20.80;;;;;;;7.90;74.42;100320.13;106063;1104;79064;-60
2021/05/01 04:37:00;;;;;;;25.20;22.00;;;;;;;7.99;74.70;100323.63;106038;1104;76959;-60
2021/05/01 04:39:07;;;;;;;25.00;20.40;;;;;;;8.02;74.69;100315.21;106036;1104;78224;-60
2021/05/01 04:41:12;;;;;;;25.40;21.50;;;;;;;8.06;74.50;100324.59;106040;1104;77949;-65
2021/05/01 04:43:21;;;;;;;22.70;19.90;;;;;;;8.13;74.61;100333.66;106051;1104;77015;-66
2021/05/01 04:45:28;;;;;;;21.30;18.60;;;;;;;8.15;74.65;100321.70;106065;1104;76951;-64
2021/05/01 04:47:33;;;;;;;21.50;18.90;;;;;;;8.25;74.57;100332.23;106036;1104;76872;-65
2021/05/01 04:49:40;;;;;;;20.30;17.20;;;;;;;8.31;74.13;100336.95;106025;1104;78691;-64
2021/05/01 04:51:45;;;;;;;20.10;16.90;;;;;;;8.34;74.18;100341.98;106040;1105;78524;-65
2021/05/01 04:53:50;;;;;;;21.40;17.90;;;;;;;8.39;73.75;100334.22;106015;1104;77236;-64
2021/05/01 04:55:55;;;;;;;18.80;15.60;;;;;;;8.43;73.85;100338.25;106020;1104;78068;-66
2021/05/01 04:58:00;;;;;;;16.90;15.10;;;;;;;8.44;73.81;100336.36;106020;1104;78271;-64
2021/05/01 05:00:08;;;;;;;15.60;13.40;;;;;;;8.36;73.92;100334.56;106018;1105;77418;-63
2021/05/01 05:02:13;;;;;;;15.90;14.10;;;;;;;8.38;73.86;100326.33;106019;1104;77715;-64
2021/05/01 05:04:21;;;;;;;15.70;12.40;;;;;;;8.36;73.77;100339.95;106007;1104;78709;-61
2021/05/01 05:06:26;;;;;;;15.60;13.00;;;;;;;8.37;73.71;100335.41;106040;1104;77081;-63
2021/05/01 05:08:31;;;;;;;15.50;13.00;;;;;;;8.36;73.63;100334.56;106020;1104;77410;-63
2021/05/01 05:10:36;;;;;;;15.00;13.30;;;;;;;8.38;73.22;100332.52;106050;1104;77589;-63
2021/05/01 05:12:46;;;;;;;14.10;12.00;;;;;;;8.32;73.55;100333.26;106062;1098;77183;-63
2021/05/01 05:14:51;;;;;;;14.10;11.50;;;;;;;8.28;73.47;100335.45;106044;1104;77834;-60
2021/05/01 05:16:56;;;;;;;14.30;12.30;;;;;;;8.22;73.22;100328.05;106032;1105;77135;-60
2021/05/01 05:19:01;;;;;;;14.00;12.50;;;;;;;8.24;73.53;100339.47;106010;1104;77681;-60
2021/05/01 05:21:07;;;;;;;15.40;11.80;;;;;;;8.21;73.90;100325.55;106032;1104;78468;-59
2021/05/01 05:23:12;;;;;;;15.00;11.80;;;;;;;8.13;73.63;100331.78;106057;1104;78087;-60
2021/05/01 05:25:17;;;;;;;13.10;10.30;;;;;;;8.13;73.32;100339.85;106040;1105;79159;-64
2021/05/01 05:27:22;;;;;;;14.60;12.80;;;;;;;8.13;73.47;100349.80;106058;1103;77875;-65
2021/05/01 05:29:27;;;;;;;15.00;12.80;;;;;;;8.08;73.22;100347.61;106020;1104;78594;-64
2021/05/01 05:31:32;;;;;;;13.90;11.90;;;;;;;8.10;73.35;100340.20;106036;1104;77265;-63
2021/05/01 05:33:37;;;;;;;13.50;11.90;;;;;;;8.08;73.49;100338.70;106030;1099;77223;-63
2021/05/01 05:35:45;;;;;;;16.50;12.90;;;;;;;8.12;73.17;100337.35;106052;1104;76859;-61
2021/05/01 05:37:50;;;;;;;14.80;13.20;;;;;;;8.16;73.07;100333.28;106034;1105;77705;-61
2021/05/01 05:39:56;;;;;;;19.50;13.10;;;;;;;8.15;73.42;100334.31;106042;1104;78850;-60
2021/05/01 05:42:01;;;;;;;15.50;12.60;;;;;;;8.15;73.39;100331.63;106041;1104;78102;-60
2021/05/01 05:44:07;;;;;;;20.00;13.20;;;;;;;8.17;72.92;100324.20;106015;1099;77951;-60
2021/05/01 05:46:13;;;;;;;17.60;13.40;;;;;;;8.16;73.27;100331.44;106030;1104;77840;-65
2021/05/01 05:48:19;;;;;;;17.90;13.40;;;;;;;8.13;73.58;100336.34;106040;1104;77872;-64
2021/05/01 05:50:25;;;;;;;21.20;14.80;;;;;;;8.10;73.46;100350.15;106061;1104;77989;-64
2021/05/01 05:52:33;;;;;;;18.40;14.00;;;;;;;8.13;73.38;100358.69;106036;1104;78868;-63
2021/05/01 05:54:38;;;;;;;16.00;12.60;;;;;;;8.23;73.22;100362.03;106033;1104;78474;-60
2021/05/01 05:56:43;;;;;;;15.90;12.90;;;;;;;8.26;72.95;100358.14;106009;1104;77079;-60
2021/05/01 05:58:49;;;;;;;14.90;12.10;;;;;;;8.35;73.25;100358.98;106032;1104;78564;-59
2021/05/01 06:00:58;;;;;;;17.10;13.80;;;;;;;8.41;73.14;100359.09;106032;1104;79162;-61
2021/05/01 06:03:04;;;;;;;15.30;12.20;;;;;;;8.38;73.30;100359.45;106042;1105;78641;-63
2021/05/01 06:05:15;;;;;;;15.20;11.70;;;;;;;8.42;73.02;100366.16;106036;1104;77449;-63
2021/05/01 06:07:27;;;;;;;17.10;12.20;;;;;;;8.46;73.15;100362.09;106034;1104;78903;-62
2021/05/01 06:09:32;;;;;;;14.80;12.00;;;;;;;8.44;73.03;100364.13;106050;1104;78199;-62
2021/05/01 06:11:39;;;;;;;13.20;11.80;;;;;;;8.58;72.80;100376.84;106025;1104;76998;-63
2021/05/01 06:13:45;;;;;;;14.30;12.10;;;;;;;8.66;72.55;100374.09;106018;1104;78820;-64
2021/05/01 06:15:51;;;;;;;13.20;11.80;;;;;;;8.71;72.72;100374.41;106038;1104;78760;-64
2021/05/01 06:18:00;;;;;;;14.20;11.10;;;;;;;8.69;72.74;100373.75;106032;1104;78093;-61
2021/05/01 06:20:09;;;;;;;158.80;117.30;;;;;;;8.81;72.51;100372.34;106058;1104;79632;-62
2021/05/01 06:22:14;;;;;;;28.40;24.40;;;;;;;8.94;72.36;100373.58;106029;1104;78420;-63
2021/05/01 06:24:20;;;;;;;20.60;16.60;;;;;;;8.92;72.62;100379.16;106050;1104;77791;-60
2021/05/01 06:26:25;;;;;;;25.00;21.90;;;;;;;8.96;72.13;100375.08;106033;1105;77765;-60
2021/05/01 06:28:31;;;;;;;19.10;16.70;;;;;;;8.94;72.26;100377.12;106038;1105;77131;-62
2021/05/01 06:30:39;;;;;;;17.30;15.50;;;;;;;8.87;72.11;100376.98;106024;1104;78492;-61
2021/05/01 06:32:45;;;;;;;20.50;17.90;;;;;;;8.80;72.05;100381.42;106016;1098;78169;-61
2021/05/01 06:34:53;;;;;;;21.60;19.00;;;;;;;8.77;72.40;100381.77;106024;1104;77292;-60
2021/05/01 06:37:00;;;;;;;17.90;15.20;;;;;;;8.71;72.27;100377.09;106033;1104;77236;-62
2021/05/01 06:39:07;;;;;;;18.20;16.30;;;;;;;8.76;72.16;100379.27;106032;1104;76801;-61
2021/05/01 06:41:17;;;;;;;17.90;16.00;;;;;;;8.82;72.14;100382.08;106067;1104;77965;-61
2021/05/01 06:43:36;;;;;;;18.80;16.80;;;;;;;8.82;71.91;100387.46;106033;1105;79597;-61
2021/05/01 06:45:44;;;;;;;20.00;17.60;;;;;;;8.83;71.93;100391.84;106076;1098;77638;-60
2021/05/01 06:47:57;;;;;;;22.70;20.00;;;;;;;8.85;71.60;100395.19;106028;1104;77450;-60
2021/05/01 06:50:08;;;;;;;24.70;20.20;;;;;;;8.90;71.54;100403.56;106034;1104;78607;-59
2021/05/01 06:52:17;;;;;;;20.30;17.20;;;;;;;8.85;71.70;100397.88;106037;1104;78179;-59
2021/05/01 06:54:25;;;;;;;22.80;17.60;;;;;;;8.96;71.64;100398.48;106044;1104;77697;-61
2021/05/01 06:56:30;;;;;;;20.30;15.60;;;;;;;9.07;71.47;100409.69;106060;1104;78271;-61
2021/05/01 06:58:39;;;;;;;21.50;17.60;;;;;;;9.09;71.23;100404.95;106025;1099;78192;-62
2021/05/01 07:00:44;;;;;;;19.90;17.80;;;;;;;9.16;71.04;100402.38;106040;1104;78343;-60
2021/05/01 07:02:54;;;;;;;22.40;18.70;;;;;;;9.13;71.33;100403.59;106053;1103;77085;-59
2021/05/01 07:05:02;;;;;;;25.80;21.00;;;;;;;9.13;71.27;100408.98;106033;1104;77491;-63
2021/05/01 07:07:09;;;;;;;23.30;19.50;;;;;;;9.15;70.90;100400.70;106034;1104;78393;-61
2021/05/01 07:09:17;;;;;;;24.40;21.90;;;;;;;9.17;71.14;100409.47;106047;1104;78043;-62
2021/05/01 07:11:22;;;;;;;23.70;21.00;;;;;;;9.14;70.85;100399.04;106030;1104;78586;-63
2021/05/01 07:13:27;;;;;;;25.50;22.00;;;;;;;9.12;71.24;100406.47;106027;1104;77742;-62
2021/05/01 07:15:32;;;;;;;22.60;20.20;;;;;;;9.13;71.20;100413.52;106060;1104;77095;-60
2021/05/01 07:17:38;;;;;;;25.50;21.20;;;;;;;9.19;70.99;100420.89;106046;1105;77964;-60
2021/05/01 07:19:44;;;;;;;23.20;19.70;;;;;;;9.23;70.89;100419.53;106034;1105;77371;-60
2021/05/01 07:21:49;;;;;;;25.80;23.10;;;;;;;9.24;70.97;100421.19;106030;1104;77845;-60
2021/05/01 07:23:57;;;;;;;26.20;22.90;;;;;;;9.22;70.92;100420.54;106043;1104;77153;-59
2021/05/01 07:26:06;;;;;;;30.20;25.70;;;;;;;9.30;71.02;100420.47;106064;1104;78823;-60
2021/05/01 07:28:17;;;;;;;27.50;24.50;;;;;;;9.41;70.64;100417.34;106060;1098;77289;-60
2021/05/01 07:30:26;;;;;;;28.30;25.10;;;;;;;9.45;70.85;100418.65;106050;1104;78995;-62
2021/05/01 07:32:40;;;;;;;27.80;23.00;;;;;;;9.51;70.38;100426.02;106015;1104;77725;-61
2021/05/01 07:34:52;;;;;;;25.10;22.30;;;;;;;9.64;70.57;100420.83;106042;1104;78069;-62
2021/05/01 07:37:01;;;;;;;25.60;22.70;;;;;;;9.82;70.41;100413.26;106041;1104;77397;-62
2021/05/01 07:39:12;;;;;;;27.40;24.60;;;;;;;10.03;70.07;100402.56;106057;1097;76933;-62
2021/05/01 07:41:26;;;;;;;23.90;21.40;;;;;;;10.14;69.84;100403.14;106027;1104;78050;-60
2021/05/01 07:43:34;;;;;;;20.60;18.30;;;;;;;10.15;69.62;100404.84;106049;1104;76892;-60
2021/05/01 07:45:39;;;;;;;18.50;15.00;;;;;;;10.14;69.60;100398.59;106062;1104;77715;-63
2021/05/01 07:47:45;;;;;;;15.70;13.90;;;;;;;10.18;69.47;100401.77;106043;1099;78534;-63
2021/05/01 07:49:51;;;;;;;20.70;18.50;;;;;;;10.11;69.46;100398.93;106066;1104;76860;-62
2021/05/01 07:51:56;;;;;;;23.00;19.80;;;;;;;10.12;69.29;100402.47;106047;1105;76996;-61
2021/05/01 07:54:02;;;;;;;24.80;22.20;;;;;;;10.02;69.15;100397.37;106053;1104;77180;-61
2021/05/01 07:56:07;;;;;;;20.50;17.50;;;;;;;10.00;69.07;100402.94;106027;1104;77122;-61
2021/05/01 07:58:13;;;;;;;14.30;12.20;;;;;;;10.03;69.09;100401.72;106032;1104;79052;-62
2021/05/01 08:00:22;;;;;;;12.10;10.90;;;;;;;10.11;68.71;100401.63;106037;1104;78425;-59
2021/05/01 08:02:27;;;;;;;13.60;11.20;;;;;;;10.22;68.83;100398.49;106083;1098;76918;-59
2021/05/01 08:04:33;;;;;;;11.50;9.50;;;;;;;10.30;68.69;100402.98;106021;1098;79172;-60
2021/05/01 08:06:41;;;;;;;13.70;12.40;;;;;;;10.35;68.46;100405.95;106025;1104;78136;-65
2021/05/01 08:08:46;;;;;;;13.20;11.80;;;;;;;10.40;68.23;100400.82;106062;1098;77865;-60
2021/05/01 08:10:51;;;;;;;11.30;9.60;;;;;;;10.41;68.44;100405.20;106047;1104;76822;-62
2021/05/01 08:12:56;;;;;;;10.30;9.20;;;;;;;10.39;68.49;100401.84;106017;1104;78046;-62
2021/05/01 08:15:02;;;;;;;10.60;9.10;;;;;;;10.22;67.94;100401.20;106009;1104;78068;-60
2021/05/01 08:17:08;;;;;;;9.00;7.80;;;;;;;10.27;68.48;100397.95;106047;1104;78343;-60
2021/05/01 08:19:14;;;;;;;10.10;8.50;;;;;;;10.22;68.34;100400.38;106051;1104;77006;-60
2021/05/01 08:21:19;;;;;;;9.30;8.30;;;;;;;10.13;68.28;100396.09;106071;1104;78779;-60
2021/05/01 08:23:25;;;;;;;9.00;8.00;;;;;;;10.30;68.33;100387.59;106043;1104;78789;-59
2021/05/01 08:25:30;;;;;;;9.50;8.00;;;;;;;10.45;68.21;100384.88;106032;1104;78103;-63
2021/05/01 08:27:36;;;;;;;8.80;7.50;;;;;;;10.54;68.39;100378.36;106035;1105;77913;-65
2021/05/01 08:29:44;;;;;;;10.40;8.00;;;;;;;10.56;68.26;100376.30;106055;1104;77256;-63
2021/05/01 08:31:50;;;;;;;8.60;7.70;;;;;;;10.63;68.20;100374.49;106029;1104;78078;-61
2021/05/01 08:33:55;;;;;;;8.90;8.00;;;;;;;10.51;67.99;100374.17;106059;1104;77669;-63
2021/05/01 08:36:00;;;;;;;9.30;8.10;;;;;;;10.36;68.29;100369.80;106021;1104;78737;-63
2021/05/01 08:38:06;;;;;;;9.60;8.10;;;;;;;10.39;68.42;100370.27;106028;1105;78235;-62
2021/05/01 08:40:14;;;;;;;8.10;7.20;;;;;;;10.33;68.46;100364.81;106021;1104;78213;-60
2021/05/01 08:42:19;;;;;;;9.60;8.60;;;;;;;10.29;68.71;100358.94;106046;1105;77232;-61
2021/05/01 08:44:25;;;;;;;10.30;8.70;;;;;;;10.39;68.56;100361.33;106022;1104;78770;-61
2021/05/01 08:46:30;;;;;;;9.70;8.30;;;;;;;10.39;68.57;100354.07;106045;1105;77656;-62
2021/05/01 08:48:36;;;;;;;10.20;8.60;;;;;;;10.49;68.70;100359.19;106033;1100;78742;-62
2021/05/01 08:50:46;;;;;;;10.00;8.90;;;;;;;10.49;68.57;100353.79;106040;1105;76984;-64
2021/05/01 08:52:51;;;;;;;10.20;9.20;;;;;;;10.67;68.73;100359.59;106037;1105;78154;-62
2021/05/01 08:54:56;;;;;;;11.40;9.30;;;;;;;10.78;68.35;100359.09;106098;1098;78368;-61
2021/05/01 08:57:21;;;;;;;12.20;8.10;;;;;;;10.77;68.49;100357.41;106031;1104;78523;-59
2021/05/01 08:59:26;;;;;;;9.40;8.40;;;;;;;10.66;68.45;100361.45;106038;1105;77672;-61
2021/05/01 09:01:31;;;;;;;8.90;8.00;;;;;;;10.50;68.44;100352.73;106042;1104;78738;-61
2021/05/01 09:03:38;;;;;;;10.30;9.30;;;;;;;10.34;68.82;100350.27;106047;1104;77175;-62
2021/05/01 09:05:44;;;;;;;10.30;9.30;;;;;;;10.35;69.02;100360.05;106040;1104;78258;-62
2021/05/01 09:07:53;;;;;;;10.50;8.60;;;;;;;10.29;68.95;100358.94;106022;1104;78436;-62
2021/05/01 09:09:59;;;;;;;9.30;8.40;;;;;;;10.42;68.67;100359.09;106027;1104;77187;-59
2021/05/01 09:12:05;;;;;;;10.30;9.10;;;;;;;10.41;68.90;100367.41;106043;1104;78323;-60
2021/05/01 09:14:20;;;;;;;10.40;8.10;;;;;;;10.43;68.73;100376.14;106041;1104;77232;-61
2021/05/01 09:16:25;;;;;;;7.90;7.00;;;;;;;10.38;68.67;100379.39;106020;1104;77071;-61
2021/05/01 09:18:46;;;;;;;8.80;7.90;;;;;;;10.29;68.70;100379.70;106045;1104;77874;-61
2021/05/01 09:20:52;;;;;;;9.20;8.40;;;;;;;10.39;68.93;100391.88;106034;1105;79272;-61
2021/05/01 09:23:00;;;;;;;10.20;9.00;;;;;;;10.46;69.09;100384.72;106053;1104;77755;-61
2021/05/01 09:25:10;;;;;;;9.60;8.50;;;;;;;10.43;69.00;100392.34;106051;1105;78699;-62
2021/05/01 09:27:18;;;;;;;9.80;8.90;;;;;;;10.54;69.06;100400.81;106059;1097;76790;-60
2021/05/01 09:29:32;;;;;;;10.10;9.10;;;;;;;10.69;69.11;100400.76;106019;1104;76916;-59
2021/05/01 09:31:43;;;;;;;10.50;9.10;;;;;;;10.71;69.37;100396.03;106023;1105;78304;-60
2021/05/01 09:33:52;;;;;;;8.80;7.90;;;;;;;10.61;69.15;100390.06;106036;1104;78574;-58
2021/05/01 09:36:08;;;;;;;10.60;8.90;;;;;;;10.62;69.05;100394.45;106036;1105;79024;-61